Time,TemperatureF,DewpointF,PressureIn,WindDirection,WindDirectionDegrees,WindSpeedMPH,WindSpeedGustMPH,Humidity,HourlyPrecipIn,Conditions,Clouds,dailyrainin,SoftwareType,DateUTC
2013-01-26 00:00:00,5.9,3.6,30.07,SE,134,0.0,0.0,90,0.00,,FEW005,0.00,VWS V14.01,2013-01-26 05:00:00,
2013-01-26 00:02:00,5.9,3.6,30.07,SE,134,0.0,0.0,90,0.00,,FEW005,0.00,VWS V14.01,2013-01-26 05:02:00,
2013-01-26 00:08:00,5.8,3.5,30.07,SE,134,0.0,0.0,90,0.00,,FEW005,0.00,VWS V14.01,2013-01-26 05:08:00,
2013-01-26 00:13:00,5.8,3.5,30.07,SE,134,0.0,0.0,90,0.00,,FEW005,0.00,VWS V14.01,2013-01-26 05:13:00,
2013-01-26 00:18:00,5.6,3.3,30.07,SE,134,0.0,0.0,90,0.00,,FEW005,0.00,VWS V14.01,2013-01-26 05:18:00,
2013-01-26 00:23:00,5.4,3.1,30.07,SE,134,0.0,0.0,90,0.00,,FEW005,0.00,VWS V14.01,2013-01-26 05:23:00,
2013-01-26 00:28:00,5.4,3.1,30.07,SE,134,0.0,0.0,90,0.00,,FEW005,0.00,VWS V14.01,2013-01-26 05:28:00,
2013-01-26 00:33:00,5.2,2.9,30.07,SE,135,0.0,0.0,90,0.00,,FEW005,0.00,VWS V14.01,2013-01-26 05:33:00,
2013-01-26 00:38:00,4.9,2.4,30.07,SE,135,0.0,0.0,89,0.00,,FEW005,0.00,VWS V14.01,2013-01-26 05:38:00,
2013-01-26 00:43:00,4.5,2.0,30.07,SE,135,0.0,0.0,89,0.00,,FEW005,0.00,VWS V14.01,2013-01-26 05:43:00,
2013-01-26 00:49:00,4.0,1.5,30.07,SE,135,0.0,0.0,89,0.00,,FEW008,0.00,VWS V14.01,2013-01-26 05:49:00,
2013-01-26 00:54:00,3.7,1.2,30.07,SE,135,0.0,0.0,89,0.00,,FEW008,0.00,VWS V14.01,2013-01-26 05:54:00,
2013-01-26 00:59:00,3.6,1.1,30.07,SE,135,0.0,0.0,89,0.00,,FEW008,0.00,VWS V14.01,2013-01-26 05:59:00,
2013-01-26 01:04:00,3.7,1.4,30.08,SE,135,0.0,0.0,90,0.00,,BKN004,0.00,VWS V14.01,2013-01-26 06:04:00,
2013-01-26 01:09:00,3.6,1.1,30.08,SE,134,0.0,0.0,89,0.00,,BKN004,0.00,VWS V14.01,2013-01-26 06:09:00,
2013-01-26 01:14:00,3.6,1.1,30.08,SE,134,0.0,0.0,89,0.00,,BKN004,0.00,VWS V14.01,2013-01-26 06:14:00,
2013-01-26 01:19:00,3.4,0.9,30.08,SW,236,0.0,1.0,89,0.00,,BKN004,0.00,VWS V14.01,2013-01-26 06:19:00,
2013-01-26 01:24:00,3.0,0.3,30.08,SW,236,0.0,1.0,88,0.00,,BKN004,0.00,VWS V14.01,2013-01-26 06:24:00,
2013-01-26 01:30:00,2.9,0.4,30.08,SW,236,0.0,1.0,89,0.00,,BKN004,0.00,VWS V14.01,2013-01-26 06:30:00,
2013-01-26 01:35:00,3.0,0.5,30.08,SW,236,0.0,0.0,89,0.00,,BKN004,0.00,VWS V14.01,2013-01-26 06:35:00,
2013-01-26 01:40:00,3.0,0.5,30.08,SW,236,0.0,0.0,89,0.00,,BKN004,0.00,VWS V14.01,2013-01-26 06:40:00,
2013-01-26 01:45:00,2.9,0.4,30.08,SW,236,0.0,0.0,89,0.00,,OVC004,0.00,VWS V14.01,2013-01-26 06:45:00,
2013-01-26 01:50:00,2.9,0.4,30.08,SW,236,0.0,0.0,89,0.00,,OVC004,0.00,VWS V14.01,2013-01-26 06:50:00,
2013-01-26 01:55:00,2.8,0.3,30.08,SW,236,0.0,0.0,89,0.00,,OVC004,0.00,VWS V14.01,2013-01-26 06:55:00,
2013-01-26 02:00:00,2.8,0.3,30.08,SW,236,0.0,0.0,89,0.00,,OVC004,0.00,VWS V14.01,2013-01-26 07:00:00,
2013-01-26 02:05:00,3.3,1.0,30.08,SW,236,0.0,0.0,90,0.00,,SCT002,0.00,VWS V14.01,2013-01-26 07:05:00,
2013-01-26 02:10:00,3.0,0.5,30.08,SW,236,0.0,0.0,89,0.00,,SCT002,0.00,VWS V14.01,2013-01-26 07:10:00,
2013-01-26 02:16:00,2.6,0.1,30.08,SW,236,0.0,0.0,89,0.00,,SCT002,0.00,VWS V14.01,2013-01-26 07:16:00,
2013-01-26 02:21:00,2.1,-0.6,30.09,SW,236,0.0,0.0,88,0.00,,SCT002,0.00,VWS V14.01,2013-01-26 07:21:00,
2013-01-26 02:26:00,1.7,-1.0,30.08,SW,236,0.0,0.0,88,0.00,,SCT002,0.00,VWS V14.01,2013-01-26 07:26:00,
2013-01-26 02:31:00,1.5,-1.2,30.09,SW,236,0.0,0.0,88,0.00,,SCT002,0.00,VWS V14.01,2013-01-26 07:31:00,
2013-01-26 02:36:00,1.4,-1.3,30.09,SW,236,0.0,0.0,88,0.00,,SCT002,0.00,VWS V14.01,2013-01-26 07:36:00,
2013-01-26 02:41:00,1.6,-0.9,30.09,SW,236,0.0,0.0,89,0.00,,SCT002,0.00,VWS V14.01,2013-01-26 07:41:00,
2013-01-26 02:46:00,2.1,-0.4,30.09,SW,236,0.0,0.0,89,0.00,,CLR,0.00,VWS V14.01,2013-01-26 07:46:00,
2013-01-26 02:51:00,2.6,0.1,30.09,South,177,0.0,0.0,89,0.00,,CLR,0.00,VWS V14.01,2013-01-26 07:51:00,
2013-01-26 02:56:00,3.2,0.9,30.09,SE,134,0.0,1.0,90,0.00,,CLR,0.00,VWS V14.01,2013-01-26 07:56:00,
2013-01-26 03:02:00,3.7,1.4,30.09,SE,134,0.0,1.0,90,0.00,,CLR,0.00,VWS V14.01,2013-01-26 08:02:00,
2013-01-26 03:07:00,3.9,1.6,30.09,ESE,118,0.0,1.0,90,0.00,,CLR,0.00,VWS V14.01,2013-01-26 08:07:00,
2013-01-26 03:12:00,3.8,1.3,30.09,ESE,109,0.0,1.0,89,0.00,,CLR,0.00,VWS V14.01,2013-01-26 08:12:00,
2013-01-26 03:17:00,3.8,1.3,30.09,ESE,109,0.0,1.0,89,0.00,,CLR,0.00,VWS V14.01,2013-01-26 08:17:00,
2013-01-26 03:22:00,4.0,1.5,30.09,WSW,243,0.0,1.0,89,0.00,,CLR,0.00,VWS V14.01,2013-01-26 08:22:00,
2013-01-26 03:27:00,4.2,1.7,30.10,WSW,242,0.0,1.0,89,0.00,,CLR,0.00,VWS V14.01,2013-01-26 08:27:00,
2013-01-26 03:32:00,4.1,1.6,30.10,WSW,242,0.0,1.0,89,0.00,,CLR,0.00,VWS V14.01,2013-01-26 08:32:00,
2013-01-26 03:37:00,4.1,1.3,30.10,WSW,242,0.0,0.0,88,0.00,,CLR,0.00,VWS V14.01,2013-01-26 08:37:00,
2013-01-26 03:42:00,4.0,1.2,30.09,WSW,242,0.0,0.0,88,0.00,,CLR,0.00,VWS V14.01,2013-01-26 08:42:00,
2013-01-26 03:47:00,4.0,1.2,30.09,WSW,242,0.0,0.0,88,0.00,,CLR,0.00,VWS V14.01,2013-01-26 08:47:00,
2013-01-26 03:53:00,3.9,1.1,30.09,WSW,242,0.0,0.0,88,0.00,,CLR,0.00,VWS V14.01,2013-01-26 08:53:00,
2013-01-26 03:58:00,3.9,1.1,30.10,WSW,242,0.0,0.0,88,0.00,,CLR,0.00,VWS V14.01,2013-01-26 08:58:00,
2013-01-26 04:03:00,4.1,1.6,30.10,WSW,242,0.0,0.0,89,0.00,,CLR,0.00,VWS V14.01,2013-01-26 09:03:00,
2013-01-26 04:08:00,4.3,1.8,30.10,WSW,241,0.0,0.0,89,0.00,,CLR,0.00,VWS V14.01,2013-01-26 09:08:00,
2013-01-26 04:13:00,4.5,2.0,30.10,WSW,242,0.0,0.0,89,0.00,,CLR,0.00,VWS V14.01,2013-01-26 09:13:00,
2013-01-26 04:18:00,4.7,2.2,30.10,WSW,246,0.0,1.0,89,0.00,,CLR,0.00,VWS V14.01,2013-01-26 09:18:00,
2013-01-26 04:23:00,4.8,2.3,30.10,West,262,0.0,1.0,89,0.00,,CLR,0.00,VWS V14.01,2013-01-26 09:23:00,
2013-01-26 04:28:00,4.8,2.3,30.11,West,261,0.0,1.0,89,0.00,,CLR,0.00,VWS V14.01,2013-01-26 09:28:00,
2013-01-26 04:33:00,5.1,2.6,30.11,WSW,250,0.0,0.0,89,0.00,,CLR,0.00,VWS V14.01,2013-01-26 09:33:00,
2013-01-26 04:38:00,5.3,2.8,30.11,WSW,248,0.0,0.0,89,0.00,,CLR,0.00,VWS V14.01,2013-01-26 09:38:00,
2013-01-26 04:44:00,5.3,2.8,30.11,WSW,246,0.0,1.0,89,0.00,,CLR,0.00,VWS V14.01,2013-01-26 09:44:00,
2013-01-26 04:49:00,5.4,2.9,30.11,WSW,249,0.0,1.0,89,0.00,,CLR,0.00,VWS V14.01,2013-01-26 09:49:00,
2013-01-26 04:54:00,5.4,2.6,30.11,WSW,245,0.0,1.0,88,0.00,,CLR,0.00,VWS V14.01,2013-01-26 09:54:00,
2013-01-26 04:59:00,5.2,2.4,30.11,West,259,0.0,1.0,88,0.00,,CLR,0.00,VWS V14.01,2013-01-26 09:59:00,
2013-01-26 05:04:00,5.1,2.3,30.11,West,259,0.0,0.0,88,0.00,,CLR,0.00,VWS V14.01,2013-01-26 10:04:00,
2013-01-26 05:09:00,5.3,2.8,30.11,West,259,0.0,0.0,89,0.00,,CLR,0.00,VWS V14.01,2013-01-26 10:09:00,
2013-01-26 05:15:00,5.4,2.9,30.11,West,259,0.0,0.0,89,0.00,,CLR,0.00,VWS V14.01,2013-01-26 10:15:00,
2013-01-26 05:20:00,5.4,2.9,30.11,West,259,0.0,0.0,89,0.00,,CLR,0.00,VWS V14.01,2013-01-26 10:20:00,
2013-01-26 05:25:00,5.5,3.0,30.11,West,259,0.0,0.0,89,0.00,,CLR,0.00,VWS V14.01,2013-01-26 10:25:00,
2013-01-26 05:30:00,5.6,3.1,30.12,WSW,237,0.0,0.0,89,0.00,,CLR,0.00,VWS V14.01,2013-01-26 10:30:00,
2013-01-26 05:35:00,5.8,3.3,30.12,WSW,245,0.0,0.0,89,0.00,,CLR,0.00,VWS V14.01,2013-01-26 10:35:00,
2013-01-26 05:40:00,6.1,3.6,30.12,WSW,250,0.0,0.0,89,0.00,,CLR,0.00,VWS V14.01,2013-01-26 10:40:00,
2013-01-26 05:45:00,6.3,3.8,30.12,West,259,0.0,1.0,89,0.00,,BKN095,0.00,VWS V14.01,2013-01-26 10:45:00,
2013-01-26 05:51:00,6.5,4.0,30.12,WSW,255,0.0,1.0,89,0.00,,BKN095,0.00,VWS V14.01,2013-01-26 10:51:00,
2013-01-26 05:56:00,6.6,4.1,30.12,West,271,0.0,1.0,89,0.00,,BKN095,0.00,VWS V14.01,2013-01-26 10:56:00,
2013-01-26 06:01:00,6.6,4.1,30.13,West,271,0.0,1.0,89,0.00,,BKN095,0.00,VWS V14.01,2013-01-26 11:01:00,
2013-01-26 06:06:00,6.6,3.8,30.13,West,271,0.0,0.0,88,0.00,,BKN095,0.00,VWS V14.01,2013-01-26 11:06:00,
2013-01-26 06:11:00,6.4,3.6,30.13,SW,232,0.0,1.0,88,0.00,,BKN095,0.00,VWS V14.01,2013-01-26 11:11:00,
2013-01-26 06:16:00,6.2,3.4,30.14,SW,232,0.0,1.0,88,0.00,,BKN095,0.00,VWS V14.01,2013-01-26 11:16:00,
2013-01-26 06:21:00,6.2,3.4,30.14,SW,232,0.0,1.0,88,0.00,,BKN095,0.00,VWS V14.01,2013-01-26 11:21:00,
2013-01-26 06:26:00,6.3,3.5,30.14,SW,232,0.0,1.0,88,0.00,,BKN095,0.00,VWS V14.01,2013-01-26 11:26:00,
2013-01-26 06:32:00,6.4,3.9,30.14,SW,232,0.0,1.0,89,0.00,,BKN095,0.00,VWS V14.01,2013-01-26 11:32:00,
2013-01-26 06:37:00,6.6,4.1,30.15,SW,232,0.0,0.0,89,0.00,,BKN095,0.00,VWS V14.01,2013-01-26 11:37:00,
2013-01-26 06:42:00,6.6,4.1,30.15,SW,232,0.0,0.0,89,0.00,,BKN095,0.00,VWS V14.01,2013-01-26 11:42:00,
2013-01-26 06:47:00,6.7,4.2,30.15,SW,232,0.0,0.0,89,0.00,,OVC100,0.00,VWS V14.01,2013-01-26 11:47:00,
2013-01-26 06:52:00,6.7,4.2,30.15,SW,233,0.0,0.0,89,0.00,,OVC100,0.00,VWS V14.01,2013-01-26 11:52:00,
2013-01-26 06:57:00,6.8,4.2,30.16,SW,232,0.0,0.0,89,0.00,,OVC100,0.00,VWS V14.01,2013-01-26 11:57:00,
2013-01-26 07:02:00,6.9,4.3,30.16,SW,232,0.0,0.0,89,0.00,,OVC100,0.00,VWS V14.01,2013-01-26 12:02:00,
2013-01-26 07:07:00,7.0,4.4,30.16,SW,232,0.0,0.0,89,0.00,,OVC100,0.00,VWS V14.01,2013-01-26 12:07:00,
2013-01-26 07:13:00,7.0,4.4,30.16,SW,232,0.0,0.0,89,0.00,,OVC100,0.00,VWS V14.01,2013-01-26 12:13:00,
2013-01-26 07:18:00,7.0,4.4,30.16,SW,232,0.0,0.0,89,0.00,,OVC100,0.00,VWS V14.01,2013-01-26 12:18:00,
2013-01-26 07:23:00,7.1,4.6,30.16,SW,232,0.0,0.0,89,0.00,,OVC100,0.00,VWS V14.01,2013-01-26 12:23:00,
2013-01-26 07:28:00,7.3,4.8,30.16,SW,232,0.0,0.0,89,0.00,,OVC100,0.00,VWS V14.01,2013-01-26 12:28:00,
2013-01-26 07:33:00,7.5,4.9,30.16,SW,233,0.0,0.0,89,0.00,,OVC100,0.00,VWS V14.01,2013-01-26 12:33:00,
2013-01-26 07:38:00,7.6,5.0,30.17,SW,232,0.0,0.0,89,0.00,,OVC100,0.00,VWS V14.01,2013-01-26 12:38:00,
2013-01-26 07:43:00,7.7,5.1,30.17,SW,231,0.0,0.0,89,0.00,,OVC100,0.00,VWS V14.01,2013-01-26 12:43:00,
2013-01-26 07:49:00,7.8,5.2,30.17,SW,232,0.0,0.0,89,0.00,,OVC100,0.00,VWS V14.01,2013-01-26 12:49:00,
2013-01-26 07:54:00,8.0,5.4,30.17,SW,232,0.0,0.0,89,0.00,,OVC100,0.00,VWS V14.01,2013-01-26 12:54:00,
2013-01-26 07:59:00,8.1,5.5,30.17,SW,232,0.0,0.0,89,0.00,,OVC100,0.00,VWS V14.01,2013-01-26 12:59:00,
2013-01-26 08:04:00,8.0,5.4,30.17,SW,231,0.0,0.0,89,0.00,,OVC100,0.00,VWS V14.01,2013-01-26 13:04:00,
2013-01-26 08:09:00,8.2,5.6,30.17,SW,232,0.0,0.0,89,0.00,,OVC100,0.00,VWS V14.01,2013-01-26 13:09:00,
2013-01-26 08:14:00,8.3,5.7,30.17,SW,231,0.0,0.0,89,0.00,,OVC100,0.00,VWS V14.01,2013-01-26 13:14:00,
2013-01-26 08:20:00,8.6,6.0,30.17,SW,232,0.0,0.0,89,0.00,,OVC100,0.00,VWS V14.01,2013-01-26 13:20:00,
2013-01-26 08:25:00,8.9,6.3,30.17,SW,232,0.0,0.0,89,0.00,,OVC100,0.00,VWS V14.01,2013-01-26 13:25:00,
2013-01-26 08:30:00,9.4,6.8,30.17,SW,232,0.0,0.0,89,0.00,,OVC100,0.00,VWS V14.01,2013-01-26 13:30:00,
2013-01-26 08:35:00,9.8,7.2,30.17,SW,232,0.0,0.0,89,0.00,,OVC100,0.00,VWS V14.01,2013-01-26 13:35:00,
2013-01-26 08:40:00,10.1,7.5,30.17,SW,232,0.0,0.0,89,0.00,,OVC100,0.00,VWS V14.01,2013-01-26 13:40:00,
2013-01-26 08:45:00,10.3,7.7,30.17,SW,232,0.0,0.0,89,0.00,,OVC095,0.00,VWS V14.01,2013-01-26 13:45:00,
2013-01-26 08:50:00,10.7,8.1,30.17,SW,232,0.0,0.0,89,0.00,,OVC095,0.00,VWS V14.01,2013-01-26 13:50:00,
2013-01-26 08:55:00,10.9,8.1,30.17,SW,232,0.0,0.0,88,0.00,,OVC095,0.00,VWS V14.01,2013-01-26 13:55:00,
2013-01-26 09:01:00,11.3,8.4,30.18,SW,232,0.0,0.0,88,0.00,,OVC095,0.00,VWS V14.01,2013-01-26 14:01:00,
2013-01-26 09:06:00,11.5,8.6,30.18,SW,232,0.0,0.0,88,0.00,,OVC095,0.00,VWS V14.01,2013-01-26 14:06:00,
2013-01-26 09:11:00,11.8,8.9,30.18,SW,231,0.0,0.0,88,0.00,,OVC095,0.00,VWS V14.01,2013-01-26 14:11:00,
2013-01-26 09:16:00,12.0,8.9,30.18,SW,233,0.0,0.0,87,0.00,,OVC095,0.00,VWS V14.01,2013-01-26 14:16:00,
2013-01-26 09:21:00,12.4,9.5,30.19,SW,233,0.0,0.0,88,0.00,,OVC095,0.00,VWS V14.01,2013-01-26 14:21:00,
2013-01-26 09:26:00,12.8,9.7,30.19,SW,233,0.0,0.0,87,0.00,,OVC095,0.00,VWS V14.01,2013-01-26 14:26:00,
2013-01-26 09:31:00,13.1,10.0,30.20,SW,233,0.0,0.0,87,0.00,,OVC095,0.00,VWS V14.01,2013-01-26 14:31:00,
2013-01-26 09:36:00,13.5,10.4,30.20,SW,232,0.0,0.0,87,0.00,,OVC095,0.00,VWS V14.01,2013-01-26 14:36:00,
2013-01-26 09:42:00,14.2,11.1,30.19,SSE,158,0.0,0.0,87,0.00,,OVC095,0.00,VWS V14.01,2013-01-26 14:42:00,
2013-01-26 09:47:00,14.7,11.3,30.20,SW,225,0.0,0.0,86,0.00,,OVC090,0.00,VWS V14.01,2013-01-26 14:47:00,
2013-01-26 09:52:00,14.6,10.7,30.20,WSW,239,0.0,1.0,84,0.00,,OVC090,0.00,VWS V14.01,2013-01-26 14:52:00,
2013-01-26 09:57:00,14.9,11.2,30.20,WSW,239,0.0,1.0,85,0.00,,OVC090,0.00,VWS V14.01,2013-01-26 14:57:00,
2013-01-26 10:02:00,15.6,11.9,30.20,SE,125,0.0,1.0,85,0.00,,OVC090,0.00,VWS V14.01,2013-01-26 15:02:00,
2013-01-26 10:07:00,16.2,12.0,30.20,East,101,0.0,1.0,83,0.00,,OVC090,0.00,VWS V14.01,2013-01-26 15:07:00,
2013-01-26 10:13:00,16.4,12.1,30.20,East,90,0.0,1.0,83,0.00,,OVC090,0.00,VWS V14.01,2013-01-26 15:13:00,
2013-01-26 10:18:00,17.0,12.7,30.20,WSW,250,0.0,1.0,83,0.00,,OVC090,0.00,VWS V14.01,2013-01-26 15:18:00,
2013-01-26 10:23:00,17.7,12.6,30.20,SE,138,0.0,1.0,80,0.00,,OVC090,0.00,VWS V14.01,2013-01-26 15:23:00,
2013-01-26 10:28:00,18.3,12.6,30.20,SE,131,0.0,2.0,78,0.00,,OVC090,0.00,VWS V14.01,2013-01-26 15:28:00,
2013-01-26 10:33:00,18.5,12.5,30.20,SW,228,1.0,1.0,77,0.00,,OVC100,0.00,VWS V14.01,2013-01-26 15:33:00,
2013-01-26 10:38:00,19.0,12.7,30.20,ESE,102,0.0,2.0,76,0.00,,OVC100,0.00,VWS V14.01,2013-01-26 15:38:00,
2013-01-26 10:43:00,18.9,12.3,30.20,East,101,0.0,2.0,75,0.00,,OVC100,0.00,VWS V14.01,2013-01-26 15:43:00,
2013-01-26 10:49:00,18.9,12.6,30.20,SE,141,1.0,2.0,76,0.00,,OVC100,0.00,VWS V14.01,2013-01-26 15:49:00,
2013-01-26 10:54:00,19.1,12.5,30.20,East,86,2.0,3.0,75,0.00,,OVC100,0.00,VWS V14.01,2013-01-26 15:54:00,
2013-01-26 10:59:00,19.6,13.0,30.20,SE,137,1.0,3.0,75,0.00,,OVC100,0.00,VWS V14.01,2013-01-26 15:59:00,
2013-01-26 11:04:00,19.9,12.7,30.20,East,93,1.0,1.0,73,0.00,,OVC100,0.00,VWS V14.01,2013-01-26 16:04:00,
2013-01-26 11:09:00,20.3,13.0,30.20,WSW,247,0.0,2.0,73,0.00,,OVC100,0.00,VWS V14.01,2013-01-26 16:09:00,
2013-01-26 11:14:00,20.7,13.1,30.20,SSE,165,2.0,3.0,72,0.00,,OVC100,0.00,VWS V14.01,2013-01-26 16:14:00,
2013-01-26 11:19:00,20.8,12.9,30.20,South,181,2.0,3.0,71,0.00,,OVC100,0.00,VWS V14.01,2013-01-26 16:19:00,
2013-01-26 11:24:00,20.9,13.0,30.20,WSW,238,3.0,4.0,71,0.00,,OVC100,0.00,VWS V14.01,2013-01-26 16:24:00,
2013-01-26 11:29:00,20.1,11.9,30.20,WSW,242,0.0,4.0,70,0.00,,OVC100,0.00,VWS V14.01,2013-01-26 16:29:00,
2013-01-26 11:35:00,20.0,12.1,30.19,WSW,238,2.0,4.0,71,0.00,,OVC100,0.00,VWS V14.01,2013-01-26 16:35:00,
2013-01-26 11:40:00,20.2,12.9,30.19,SE,129,0.0,4.0,73,0.00,,OVC100,0.00,VWS V14.01,2013-01-26 16:40:00,
2013-01-26 11:45:00,20.6,13.6,30.19,SSW,211,1.0,4.0,74,0.00,,CLR,0.00,VWS V14.01,2013-01-26 16:45:00,
2013-01-26 11:50:00,20.9,13.6,30.19,SE,146,0.0,4.0,73,0.00,,CLR,0.00,VWS V14.01,2013-01-26 16:50:00,
2013-01-26 11:55:00,21.3,14.0,30.19,SE,145,0.0,4.0,73,0.00,,CLR,0.00,VWS V14.01,2013-01-26 16:55:00,
2013-01-26 12:00:00,21.5,13.6,30.19,ENE,65,0.0,4.0,71,0.00,,CLR,0.00,VWS V14.01,2013-01-26 17:00:00,
2013-01-26 12:05:00,21.5,12.9,30.20,WSW,242,0.0,2.0,69,0.00,,CLR,0.00,VWS V14.01,2013-01-26 17:05:00,
2013-01-26 12:10:00,21.5,12.9,30.20,WNW,302,0.0,2.0,69,0.00,,CLR,0.00,VWS V14.01,2013-01-26 17:10:00,
2013-01-26 12:15:00,21.9,13.0,30.20,NE,40,0.0,3.0,68,0.00,,CLR,0.00,VWS V14.01,2013-01-26 17:15:00,
2013-01-26 12:21:00,22.0,12.7,30.20,West,273,0.0,3.0,67,0.00,,CLR,0.00,VWS V14.01,2013-01-26 17:21:00,
2013-01-26 12:26:00,22.1,12.8,30.20,WSW,257,1.0,3.0,67,0.00,,CLR,0.00,VWS V14.01,2013-01-26 17:26:00,
2013-01-26 12:31:00,22.5,13.6,30.21,West,264,0.0,3.0,68,0.00,,CLR,0.00,VWS V14.01,2013-01-26 17:31:00,
2013-01-26 12:36:00,22.6,12.6,30.21,WNW,293,1.0,4.0,65,0.00,,OVC075,0.00,VWS V14.01,2013-01-26 17:36:00,
2013-01-26 12:41:00,22.7,13.4,30.21,WNW,287,1.0,4.0,67,0.00,,OVC075,0.00,VWS V14.01,2013-01-26 17:41:00,
2013-01-26 12:46:00,23.1,13.8,30.20,West,259,0.0,4.0,67,0.00,,OVC075,0.00,VWS V14.01,2013-01-26 17:46:00,
2013-01-26 12:51:00,23.3,13.3,30.21,NE,44,1.0,4.0,65,0.00,,OVC075,0.00,VWS V14.01,2013-01-26 17:51:00,
2013-01-26 12:56:00,23.2,13.5,30.21,NE,51,2.0,4.0,66,0.00,,OVC075,0.00,VWS V14.01,2013-01-26 17:56:00,
2013-01-26 13:02:00,22.8,12.8,30.21,NNE,13,0.0,4.0,65,0.00,,OVC075,0.00,VWS V14.01,2013-01-26 18:02:00,
2013-01-26 13:07:00,22.6,12.6,30.21,North,349,2.0,5.0,65,0.00,,OVC075,0.00,VWS V14.01,2013-01-26 18:07:00,
2013-01-26 13:12:00,22.5,12.9,30.21,WNW,296,2.0,6.0,66,0.00,,OVC075,0.00,VWS V14.01,2013-01-26 18:12:00,
2013-01-26 13:17:00,22.8,13.8,30.21,NNW,329,1.0,6.0,68,0.00,,OVC075,0.00,VWS V14.01,2013-01-26 18:17:00,
2013-01-26 13:22:00,22.8,13.8,30.21,NNW,331,2.0,6.0,68,0.00,,OVC075,0.00,VWS V14.01,2013-01-26 18:22:00,
2013-01-26 13:28:00,22.6,13.3,30.21,North,4,2.0,6.0,67,0.00,,OVC075,0.00,VWS V14.01,2013-01-26 18:28:00,
2013-01-26 13:33:00,22.7,12.7,30.21,NNE,17,0.0,3.0,65,0.00,,OVC075,0.00,VWS V14.01,2013-01-26 18:33:00,
2013-01-26 13:38:00,22.7,12.7,30.21,North,360,2.0,5.0,65,0.00,,OVC075,0.00,VWS V14.01,2013-01-26 18:38:00,
2013-01-26 13:43:00,22.8,12.8,30.21,WNW,295,0.0,5.0,65,0.00,,OVC075,0.00,VWS V14.01,2013-01-26 18:43:00,
2013-01-26 13:48:00,23.1,13.1,30.21,NW,307,2.0,5.0,65,0.00,,OVC080,0.00,VWS V14.01,2013-01-26 18:48:00,
2013-01-26 13:53:00,23.3,13.3,30.21,NNW,340,0.0,5.0,65,0.00,,OVC080,0.00,VWS V14.01,2013-01-26 18:53:00,
2013-01-26 13:59:00,23.5,13.5,30.22,NW,315,2.0,5.0,65,0.00,,OVC080,0.00,VWS V14.01,2013-01-26 18:59:00,
2013-01-26 14:04:00,23.4,13.4,30.21,WSW,240,2.0,4.0,65,0.00,,OVC080,0.00,VWS V14.01,2013-01-26 19:04:00,
2013-01-26 14:09:00,23.5,13.5,30.22,West,271,0.0,4.0,65,0.00,,OVC080,0.00,VWS V14.01,2013-01-26 19:09:00,
2013-01-26 14:14:00,23.5,12.8,30.22,West,269,1.0,4.0,63,0.00,,OVC080,0.00,VWS V14.01,2013-01-26 19:14:00,
2013-01-26 14:19:00,23.5,12.8,30.22,NNW,329,1.0,4.0,63,0.00,,OVC080,0.00,VWS V14.01,2013-01-26 19:19:00,
2013-01-26 14:24:00,23.1,12.0,30.22,NNW,340,1.0,6.0,62,0.00,,OVC080,0.00,VWS V14.01,2013-01-26 19:24:00,
2013-01-26 14:29:00,23.2,12.1,30.22,East,99,0.0,6.0,62,0.00,,OVC080,0.00,VWS V14.01,2013-01-26 19:29:00,
2013-01-26 14:35:00,23.5,12.4,30.22,NNW,336,1.0,4.0,62,0.00,,OVC080,0.00,VWS V14.01,2013-01-26 19:35:00,
2013-01-26 14:40:00,23.3,11.1,30.23,SW,225,0.0,8.0,59,0.00,,OVC080,0.00,VWS V14.01,2013-01-26 19:40:00,
2013-01-26 14:45:00,23.1,11.3,30.23,NW,319,0.0,8.0,60,0.00,,OVC080,0.00,VWS V14.01,2013-01-26 19:45:00,
2013-01-26 14:50:00,23.0,11.2,30.23,NW,319,0.0,8.0,60,0.00,,OVC080,0.00,VWS V14.01,2013-01-26 19:50:00,
2013-01-26 14:55:00,22.8,11.4,30.23,North,3,2.0,8.0,61,0.00,,OVC080,0.00,VWS V14.01,2013-01-26 19:55:00,
2013-01-26 15:00:00,22.7,11.6,30.23,WNW,294,3.0,8.0,62,0.00,,OVC080,0.00,VWS V14.01,2013-01-26 20:00:00,
2013-01-26 15:05:00,22.8,11.4,30.23,NE,35,1.0,5.0,61,0.00,,OVC080,0.00,VWS V14.01,2013-01-26 20:05:00,
2013-01-26 15:10:00,22.8,11.4,30.24,WNW,285,0.0,5.0,61,0.00,,OVC080,0.00,VWS V14.01,2013-01-26 20:10:00,
2013-01-26 15:16:00,23.0,12.3,30.24,NNE,21,3.0,5.0,63,0.00,,OVC080,0.00,VWS V14.01,2013-01-26 20:16:00,
2013-01-26 15:21:00,22.6,10.8,30.24,NE,46,2.0,6.0,60,0.00,,OVC080,0.00,VWS V14.01,2013-01-26 20:21:00,
2013-01-26 15:26:00,22.5,11.1,30.24,NNW,345,1.0,6.0,61,0.00,,OVC080,0.00,VWS V14.01,2013-01-26 20:26:00,
2013-01-26 15:31:00,22.3,11.3,30.24,NE,35,2.0,7.0,62,0.00,,OVC080,0.00,VWS V14.01,2013-01-26 20:31:00,
2013-01-26 15:36:00,22.2,11.2,30.24,NNE,29,2.0,7.0,62,0.00,,OVC080,0.00,VWS V14.01,2013-01-26 20:36:00,
2013-01-26 15:41:00,22.1,11.1,30.24,NW,321,1.0,7.0,62,0.00,,OVC080,0.00,VWS V14.01,2013-01-26 20:41:00,
2013-01-26 15:46:00,22.1,11.4,30.24,West,265,0.0,7.0,63,0.00,,OVC080,0.00,VWS V14.01,2013-01-26 20:46:00,
2013-01-26 15:52:00,22.1,11.1,30.24,North,357,1.0,7.0,62,0.00,,OVC080,0.00,VWS V14.01,2013-01-26 20:52:00,
2013-01-26 15:57:00,22.1,11.8,30.25,WNW,302,1.0,7.0,64,0.00,,OVC080,0.00,VWS V14.01,2013-01-26 20:57:00,
2013-01-26 16:02:00,22.0,11.4,30.25,WSW,245,1.0,7.0,63,0.00,,OVC100,0.00,VWS V14.01,2013-01-26 21:02:00,
2013-01-26 16:07:00,22.1,11.8,30.25,WNW,301,0.0,4.0,64,0.00,,OVC100,0.00,VWS V14.01,2013-01-26 21:07:00,
2013-01-26 16:12:00,22.1,11.8,30.25,NW,316,2.0,4.0,64,0.00,,OVC100,0.00,VWS V14.01,2013-01-26 21:12:00,
2013-01-26 16:18:00,22.1,11.8,30.25,North,356,0.0,5.0,64,0.00,,OVC100,0.00,VWS V14.01,2013-01-26 21:18:00,
2013-01-26 16:23:00,21.9,12.0,30.25,NNW,340,1.0,5.0,65,0.00,,OVC100,0.00,VWS V14.01,2013-01-26 21:23:00,
2013-01-26 16:28:00,21.8,11.9,30.26,NNE,16,0.0,5.0,65,0.00,,OVC100,0.00,VWS V14.01,2013-01-26 21:28:00,
2013-01-26 16:33:00,21.7,12.1,30.26,NW,323,3.0,3.0,66,0.00,,OVC100,0.00,VWS V14.01,2013-01-26 21:33:00,
2013-01-26 16:38:00,21.6,12.0,30.26,NNE,27,1.0,3.0,66,0.00,,OVC100,0.00,VWS V14.01,2013-01-26 21:38:00,
2013-01-26 16:43:00,21.5,11.9,30.26,WSW,253,0.0,3.0,66,0.00,,OVC100,0.00,VWS V14.01,2013-01-26 21:43:00,
2013-01-26 16:48:00,21.4,12.2,30.27,WNW,291,1.0,3.0,67,0.00,,OVC100,0.00,VWS V14.01,2013-01-26 21:48:00,
2013-01-26 16:53:00,21.3,11.7,30.27,WSW,238,1.0,3.0,66,0.00,,OVC100,0.00,VWS V14.01,2013-01-26 21:53:00,
2013-01-26 16:59:00,21.2,12.0,30.27,NW,312,0.0,3.0,67,0.00,,OVC100,0.00,VWS V14.01,2013-01-26 21:59:00,
2013-01-26 17:04:00,21.0,11.4,30.27,West,267,0.0,1.0,66,0.00,,OVC100,0.00,VWS V14.01,2013-01-26 22:04:00,
2013-01-26 17:09:00,20.8,11.6,30.27,NNW,331,0.0,2.0,67,0.00,,OVC100,0.00,VWS V14.01,2013-01-26 22:09:00,
2013-01-26 17:14:00,20.5,11.3,30.28,NW,312,0.0,2.0,67,0.00,,OVC100,0.00,VWS V14.01,2013-01-26 22:14:00,
2013-01-26 17:19:00,20.2,11.4,30.28,NW,311,0.0,2.0,68,0.00,,OVC100,0.00,VWS V14.01,2013-01-26 22:19:00,
2013-01-26 17:24:00,19.8,11.0,30.28,WSW,252,1.0,2.0,68,0.00,,OVC100,0.00,VWS V14.01,2013-01-26 22:24:00,
2013-01-26 17:29:00,19.4,10.9,30.28,West,265,0.0,2.0,69,0.00,,OVC100,0.00,VWS V14.01,2013-01-26 22:29:00,
2013-01-26 17:35:00,18.9,10.8,30.28,West,266,0.0,0.0,70,0.00,,OVC100,0.00,VWS V14.01,2013-01-26 22:35:00,
2013-01-26 17:40:00,18.3,10.5,30.28,West,270,0.0,0.0,71,0.00,,OVC100,0.00,VWS V14.01,2013-01-26 22:40:00,
2013-01-26 17:45:00,17.8,10.3,30.29,WNW,284,0.0,0.0,72,0.00,,OVC100,0.00,VWS V14.01,2013-01-26 22:45:00,
2013-01-26 17:50:00,17.5,10.3,30.29,West,259,0.0,0.0,73,0.00,,OVC100,0.00,VWS V14.01,2013-01-26 22:50:00,
2013-01-26 17:55:00,17.2,10.1,30.29,NW,311,0.0,0.0,73,0.00,,OVC100,0.00,VWS V14.01,2013-01-26 22:55:00,
2013-01-26 18:01:00,17.1,10.3,30.29,WNW,284,0.0,0.0,74,0.00,,OVC100,0.00,VWS V14.01,2013-01-26 23:01:00,
2013-01-26 18:06:00,16.8,10.0,30.29,WNW,301,0.0,0.0,74,0.00,,OVC100,0.00,VWS V14.01,2013-01-26 23:06:00,
2013-01-26 18:11:00,16.4,9.6,30.29,WNW,301,0.0,0.0,74,0.00,,OVC100,0.00,VWS V14.01,2013-01-26 23:11:00,
2013-01-26 18:16:00,16.2,9.7,30.29,WNW,302,0.0,0.0,75,0.00,,OVC100,0.00,VWS V14.01,2013-01-26 23:16:00,
2013-01-26 18:21:00,16.2,10.0,30.30,NW,305,0.0,0.0,76,0.00,,OVC100,0.00,VWS V14.01,2013-01-26 23:21:00,
2013-01-26 18:26:00,16.2,10.0,30.30,NW,304,0.0,0.0,76,0.00,,OVC100,0.00,VWS V14.01,2013-01-26 23:26:00,
2013-01-26 18:31:00,16.1,9.9,30.30,NW,304,0.0,0.0,76,0.00,,OVC100,0.00,VWS V14.01,2013-01-26 23:31:00,
2013-01-26 18:36:00,16.0,9.8,30.30,NW,304,0.0,0.0,76,0.00,,OVC100,0.00,VWS V14.01,2013-01-26 23:36:00,
2013-01-26 18:42:00,15.8,9.6,30.31,NW,307,0.0,0.0,76,0.00,,OVC100,0.00,VWS V14.01,2013-01-26 23:42:00,
2013-01-26 18:47:00,15.8,9.9,30.31,NW,308,0.0,0.0,77,0.00,,CLR,0.00,VWS V14.01,2013-01-26 23:47:00,
2013-01-26 18:52:00,15.2,8.7,30.31,NNW,328,0.0,1.0,75,0.00,,CLR,0.00,VWS V14.01,2013-01-26 23:52:00,
2013-01-26 18:57:00,15.1,9.2,30.31,NNW,339,0.0,1.0,77,0.00,,CLR,0.00,VWS V14.01,2013-01-26 23:57:00,
2013-01-26 19:02:00,14.7,8.5,30.31,North,350,1.0,3.0,76,0.00,,CLR,0.00,VWS V14.01,2013-01-27 00:02:00,
2013-01-26 19:07:00,14.1,8.5,30.31,North,354,0.0,2.0,78,0.00,,CLR,0.00,VWS V14.01,2013-01-27 00:07:00,
2013-01-26 19:12:00,14.4,9.1,30.31,North,359,1.0,2.0,79,0.00,,CLR,0.00,VWS V14.01,2013-01-27 00:12:00,
2013-01-26 19:17:00,14.3,8.7,30.32,North,359,0.0,2.0,78,0.00,,CLR,0.00,VWS V14.01,2013-01-27 00:17:00,
2013-01-26 19:22:00,14.1,8.8,30.32,North,359,0.0,2.0,79,0.00,,CLR,0.00,VWS V14.01,2013-01-27 00:22:00,
2013-01-26 19:28:00,14.0,8.7,30.32,North,359,0.0,2.0,79,0.00,,CLR,0.00,VWS V14.01,2013-01-27 00:28:00,
2013-01-26 19:33:00,13.9,9.2,30.32,North,359,0.0,0.0,81,0.00,,CLR,0.00,VWS V14.01,2013-01-27 00:33:00,
2013-01-26 19:38:00,13.9,9.2,30.32,North,359,0.0,0.0,81,0.00,,CLR,0.00,VWS V14.01,2013-01-27 00:38:00,
2013-01-26 19:43:00,13.4,8.1,30.32,North,358,0.0,0.0,79,0.00,,CLR,0.00,VWS V14.01,2013-01-27 00:43:00,
2013-01-26 19:48:00,13.0,8.0,30.32,North,359,0.0,0.0,80,0.00,,CLR,0.00,VWS V14.01,2013-01-27 00:48:00,
2013-01-26 19:53:00,12.8,8.1,30.33,North,358,0.0,0.0,81,0.00,,CLR,0.00,VWS V14.01,2013-01-27 00:53:00,
2013-01-26 19:58:00,12.5,7.8,30.32,North,359,0.0,0.0,81,0.00,,CLR,0.00,VWS V14.01,2013-01-27 00:58:00,
2013-01-26 20:04:00,11.9,6.9,30.33,North,359,0.0,0.0,80,0.00,,CLR,0.00,VWS V14.01,2013-01-27 01:04:00,
2013-01-26 20:09:00,11.4,6.7,30.33,North,359,0.0,0.0,81,0.00,,CLR,0.00,VWS V14.01,2013-01-27 01:09:00,
2013-01-26 20:14:00,11.2,7.1,30.33,North,358,0.0,0.0,83,0.00,,CLR,0.00,VWS V14.01,2013-01-27 01:14:00,
2013-01-26 20:19:00,11.3,7.4,30.33,North,359,0.0,0.0,84,0.00,,CLR,0.00,VWS V14.01,2013-01-27 01:19:00,
2013-01-26 20:24:00,11.3,7.2,30.33,North,359,0.0,0.0,83,0.00,,CLR,0.00,VWS V14.01,2013-01-27 01:24:00,
2013-01-26 20:29:00,11.0,6.9,30.33,North,358,0.0,0.0,83,0.00,,CLR,0.00,VWS V14.01,2013-01-27 01:29:00,
2013-01-26 20:34:00,10.5,6.4,30.34,North,358,0.0,0.0,83,0.00,,CLR,0.00,VWS V14.01,2013-01-27 01:34:00,
2013-01-26 20:40:00,10.5,6.6,30.34,North,358,0.0,0.0,84,0.00,,CLR,0.00,VWS V14.01,2013-01-27 01:40:00,
2013-01-26 20:45:00,11.0,7.6,30.34,North,359,0.0,0.0,86,0.00,,CLR,0.00,VWS V14.01,2013-01-27 01:45:00,
2013-01-26 20:50:00,11.4,8.0,30.34,WSW,242,0.0,0.0,86,0.00,,CLR,0.00,VWS V14.01,2013-01-27 01:50:00,
2013-01-26 20:55:00,11.0,7.1,30.34,WSW,242,0.0,0.0,84,0.00,,CLR,0.00,VWS V14.01,2013-01-27 01:55:00,
2013-01-26 21:00:00,10.7,6.8,30.34,WSW,242,0.0,0.0,84,0.00,,CLR,0.00,VWS V14.01,2013-01-27 02:00:00,
2013-01-26 21:05:00,10.6,6.7,30.34,WSW,242,0.0,0.0,84,0.00,,CLR,0.00,VWS V14.01,2013-01-27 02:05:00,
2013-01-26 21:11:00,10.7,7.1,30.35,WSW,242,0.0,0.0,85,0.00,,CLR,0.00,VWS V14.01,2013-01-27 02:11:00,
2013-01-26 21:16:00,11.4,8.3,30.34,WSW,242,0.0,0.0,87,0.00,,CLR,0.00,VWS V14.01,2013-01-27 02:16:00,
2013-01-26 21:21:00,11.8,8.4,30.35,WSW,242,0.0,0.0,86,0.00,,CLR,0.00,VWS V14.01,2013-01-27 02:21:00,
2013-01-26 21:26:00,12.2,9.1,30.35,WSW,255,1.0,1.0,87,0.00,,CLR,0.00,VWS V14.01,2013-01-27 02:26:00,
2013-01-26 21:31:00,12.9,9.2,30.35,West,260,0.0,2.0,85,0.00,,CLR,0.00,VWS V14.01,2013-01-27 02:31:00,
2013-01-26 21:36:00,13.3,9.4,30.35,West,262,1.0,1.0,84,0.00,,CLR,0.00,VWS V14.01,2013-01-27 02:36:00,
2013-01-26 21:42:00,13.4,9.2,30.35,West,269,1.0,2.0,83,0.00,,CLR,0.00,VWS V14.01,2013-01-27 02:42:00,
2013-01-26 21:47:00,13.3,8.8,30.35,WSW,257,1.0,2.0,82,0.00,,FEW060,0.00,VWS V14.01,2013-01-27 02:47:00,
2013-01-26 21:52:00,13.2,8.8,30.35,WSW,249,1.0,2.0,82,0.00,,FEW060,0.00,VWS V14.01,2013-01-27 02:52:00,
2013-01-26 21:57:00,12.9,8.4,30.35,WSW,249,1.0,2.0,82,0.00,,FEW060,0.00,VWS V14.01,2013-01-27 02:57:00,
2013-01-26 22:02:00,12.6,8.4,30.35,West,259,1.0,2.0,83,0.00,,FEW060,0.00,VWS V14.01,2013-01-27 03:02:00,
2013-01-26 22:07:00,12.4,8.2,30.35,WSW,249,1.0,2.0,83,0.00,,FEW060,0.00,VWS V14.01,2013-01-27 03:07:00,
2013-01-26 22:13:00,12.3,8.1,30.35,WSW,255,1.0,2.0,83,0.00,,FEW060,0.00,VWS V14.01,2013-01-27 03:13:00,
2013-01-26 22:18:00,12.1,7.9,30.35,WSW,242,1.0,2.0,83,0.00,,FEW060,0.00,VWS V14.01,2013-01-27 03:18:00,
2013-01-26 22:23:00,12.0,7.8,30.35,WSW,242,0.0,2.0,83,0.00,,FEW060,0.00,VWS V14.01,2013-01-27 03:23:00,
2013-01-26 22:28:00,11.3,6.9,30.35,ESE,120,0.0,2.0,82,0.00,,FEW060,0.00,VWS V14.01,2013-01-27 03:28:00,
2013-01-26 22:33:00,10.7,6.6,30.36,ESE,120,0.0,0.0,83,0.00,,FEW060,0.00,VWS V14.01,2013-01-27 03:33:00,
2013-01-26 22:38:00,10.4,6.3,30.36,SW,228,1.0,1.0,83,0.00,,FEW060,0.00,VWS V14.01,2013-01-27 03:38:00,
2013-01-26 22:44:00,10.2,6.3,30.36,North,357,0.0,1.0,84,0.00,,FEW060,0.00,VWS V14.01,2013-01-27 03:44:00,
2013-01-26 22:49:00,9.8,5.9,30.36,North,355,0.0,1.0,84,0.00,,OVC060,0.00,VWS V14.01,2013-01-27 03:49:00,
2013-01-26 22:54:00,9.6,6.0,30.36,North,356,0.0,1.0,85,0.00,,OVC060,0.00,VWS V14.01,2013-01-27 03:54:00,
2013-01-26 22:59:00,9.6,6.3,30.36,North,355,0.0,1.0,86,0.00,,OVC060,0.00,VWS V14.01,2013-01-27 03:59:00,
2013-01-26 23:04:00,9.5,6.2,30.36,North,355,0.0,0.0,86,0.00,,OVC060,0.00,VWS V14.01,2013-01-27 04:04:00,
2013-01-26 23:09:00,9.8,6.7,30.36,North,357,0.0,0.0,87,0.00,,OVC060,0.00,VWS V14.01,2013-01-27 04:09:00,
2013-01-26 23:14:00,10.2,7.4,30.36,North,357,0.0,0.0,88,0.00,,OVC060,0.00,VWS V14.01,2013-01-27 04:14:00,
2013-01-26 23:20:00,11.8,9.9,30.36,WSW,252,2.0,3.0,92,0.00,,OVC060,0.00,VWS V14.01,2013-01-27 04:20:00,
2013-01-26 23:25:00,14.5,13.1,30.36,West,264,1.0,3.0,94,0.00,,OVC060,0.00,VWS V14.01,2013-01-27 04:25:00,
2013-01-26 23:30:00,17.1,15.2,30.36,WSW,238,3.0,7.0,92,0.00,,OVC060,0.00,VWS V14.01,2013-01-27 04:30:00,
2013-01-26 23:35:00,18.4,15.4,30.36,West,261,3.0,4.0,88,0.00,,OVC060,0.00,VWS V14.01,2013-01-27 04:35:00,
2013-01-26 23:40:00,19.1,15.3,30.36,West,264,2.0,4.0,85,0.00,,OVC060,0.00,VWS V14.01,2013-01-27 04:40:00,
2013-01-26 23:46:00,19.4,15.4,30.37,West,269,1.0,4.0,84,0.00,,CLR,0.00,VWS V14.01,2013-01-27 04:46:00,
2013-01-26 23:51:00,19.5,15.2,30.37,West,266,1.0,4.0,83,0.00,,CLR,0.00,VWS V14.01,2013-01-27 04:51:00,
2013-01-26 23:56:00,19.5,14.9,30.37,West,269,0.0,4.0,82,0.00,,CLR,0.00,VWS V14.01,2013-01-27 04:56:00,